sensor_id;sensor_type;location;lat;lon;timestamp;pressure;altitude;pressure_sealevel;temperature
26158;BMP280;67284;44.782;10.282;2023-02-22T00:03:37;101332.84;;;10.74
26158;BMP280;67284;44.782;10.282;2023-02-22T00:08:32;101331.16;;;10.73
26158;BMP280;67284;44.782;10.282;2023-02-22T00:13:25;101345.72;;;10.71
26158;BMP280;67284;44.782;10.282;2023-02-22T00:18:19;101337.16;;;10.69
26158;BMP280;67284;44.782;10.282;2023-02-22T00:23:19;101335.44;;;10.70
26158;BMP280;67284;44.782;10.282;2023-02-22T00:28:12;101338.88;;;10.70
26158;BMP280;67284;44.782;10.282;2023-02-22T00:33:05;101338.00;;;10.70
26158;BMP280;67284;44.782;10.282;2023-02-22T00:37:59;101332.84;;;10.68
26158;BMP280;67284;44.782;10.282;2023-02-22T00:42:52;101335.44;;;10.65
26158;BMP280;67284;44.782;10.282;2023-02-22T00:47:43;101330.28;;;10.65
26158;BMP280;67284;44.782;10.282;2023-02-22T00:52:38;101318.25;;;10.64
26158;BMP280;67284;44.782;10.282;2023-02-22T00:57:30;101329.44;;;10.65
26158;BMP280;67284;44.782;10.282;2023-02-22T01:02:22;101331.13;;;10.64
26158;BMP280;67284;44.782;10.282;2023-02-22T01:07:14;101332.88;;;10.64
26158;BMP280;67284;44.782;10.282;2023-02-22T01:12:06;101326.88;;;10.63
26158;BMP280;67284;44.782;10.282;2023-02-22T01:16:58;101326.00;;;10.64
26158;BMP280;67284;44.782;10.282;2023-02-22T01:21:50;101330.28;;;10.62
26158;BMP280;67284;44.782;10.282;2023-02-22T01:26:43;101330.31;;;10.59
26158;BMP280;67284;44.782;10.282;2023-02-22T01:31:37;101328.56;;;10.58
26158;BMP280;67284;44.782;10.282;2023-02-22T01:36:29;101312.28;;;10.56
26158;BMP280;67284;44.782;10.282;2023-02-22T01:41:21;101312.28;;;10.55
26158;BMP280;67284;44.782;10.282;2023-02-22T01:46:24;101300.28;;;10.54
26158;BMP280;67284;44.782;10.282;2023-02-22T01:51:21;101296.84;;;10.53
26158;BMP280;67284;44.782;10.282;2023-02-22T01:56:15;101283.97;;;10.52
26158;BMP280;67284;44.782;10.282;2023-02-22T02:01:08;101286.53;;;10.52
26158;BMP280;67284;44.782;10.282;2023-02-22T02:06:02;101289.09;;;10.52
26158;BMP280;67284;44.782;10.282;2023-02-22T02:10:57;101282.25;;;10.52
26158;BMP280;67284;44.782;10.282;2023-02-22T02:15:53;101286.53;;;10.52
26158;BMP280;67284;44.782;10.282;2023-02-22T02:27:04;101280.53;;;10.48
26158;BMP280;67284;44.782;10.282;2023-02-22T02:36:24;101282.28;;;10.46
26158;BMP280;67284;44.782;10.282;2023-02-22T02:46:24;101276.25;;;10.46
26158;BMP280;67284;44.782;10.282;2023-02-22T02:51:18;101270.25;;;10.45
26158;BMP280;67284;44.782;10.282;2023-02-22T02:56:11;101273.69;;;10.44
26158;BMP280;67284;44.782;10.282;2023-02-22T03:01:03;101265.13;;;10.42
26158;BMP280;67284;44.782;10.282;2023-02-22T03:11:44;101267.69;;;10.39
26158;BMP280;67284;44.782;10.282;2023-02-22T03:26:36;101276.25;;;10.36
26158;BMP280;67284;44.782;10.282;2023-02-22T03:31:38;101268.53;;;10.36
26158;BMP280;67284;44.782;10.282;2023-02-22T03:36:33;101280.53;;;10.37
26158;BMP280;67284;44.782;10.282;2023-02-22T03:41:30;101285.66;;;10.37
26158;BMP280;67284;44.782;10.282;2023-02-22T03:46:25;101283.09;;;10.37
26158;BMP280;67284;44.782;10.282;2023-02-22T03:51:21;101276.25;;;10.36
26158;BMP280;67284;44.782;10.282;2023-02-22T03:56:25;101276.28;;;10.34
26158;BMP280;67284;44.782;10.282;2023-02-22T04:01:18;101283.09;;;10.35
26158;BMP280;67284;44.782;10.282;2023-02-22T04:06:14;101283.09;;;10.34
26158;BMP280;67284;44.782;10.282;2023-02-22T04:11:07;101278.84;;;10.33
26158;BMP280;67284;44.782;10.282;2023-02-22T04:15:59;101281.41;;;10.33
26158;BMP280;67284;44.782;10.282;2023-02-22T04:20:51;101271.97;;;10.32
26158;BMP280;67284;44.782;10.282;2023-02-22T04:25:53;101265.97;;;10.33
26158;BMP280;67284;44.782;10.282;2023-02-22T04:30:45;101271.13;;;10.33
26158;BMP280;67284;44.782;10.282;2023-02-22T04:35:40;101260.84;;;10.33
26158;BMP280;67284;44.782;10.282;2023-02-22T04:40:32;101274.53;;;10.32
26158;BMP280;67284;44.782;10.282;2023-02-22T04:45:24;101271.97;;;10.32
26158;BMP280;67284;44.782;10.282;2023-02-22T04:50:16;101260.84;;;10.33
26158;BMP280;67284;44.782;10.282;2023-02-22T04:55:09;101258.25;;;10.33
26158;BMP280;67284;44.782;10.282;2023-02-22T05:00:03;101260.84;;;10.31
26158;BMP280;67284;44.782;10.282;2023-02-22T05:04:56;101270.25;;;10.32
26158;BMP280;67284;44.782;10.282;2023-02-22T05:09:48;101272.81;;;10.32
26158;BMP280;67284;44.782;10.282;2023-02-22T05:14:40;101267.66;;;10.31
26158;BMP280;67284;44.782;10.282;2023-02-22T05:19:32;101266.84;;;10.30
26158;BMP280;67284;44.782;10.282;2023-02-22T05:24:24;101268.53;;;10.30
26158;BMP280;67284;44.782;10.282;2023-02-22T05:29:16;101257.38;;;10.29
26158;BMP280;67284;44.782;10.282;2023-02-22T05:34:08;101268.53;;;10.28
26158;BMP280;67284;44.782;10.282;2023-02-22T05:38:59;101262.53;;;10.28
26158;BMP280;67284;44.782;10.282;2023-02-22T05:43:51;101260.81;;;10.27
26158;BMP280;67284;44.782;10.282;2023-02-22T05:48:43;101262.53;;;10.26
26158;BMP280;67284;44.782;10.282;2023-02-22T05:53:35;101259.13;;;10.24
26158;BMP280;67284;44.782;10.282;2023-02-22T05:58:27;101258.25;;;10.24
26158;BMP280;67284;44.782;10.282;2023-02-22T06:03:19;101259.13;;;10.24
26158;BMP280;67284;44.782;10.282;2023-02-22T06:08:11;101269.41;;;10.24
26158;BMP280;67284;44.782;10.282;2023-02-22T06:13:04;101271.97;;;10.23
26158;BMP280;67284;44.782;10.282;2023-02-22T06:17:57;101276.25;;;10.25
26158;BMP280;67284;44.782;10.282;2023-02-22T06:22:50;101282.25;;;10.26
26158;BMP280;67284;44.782;10.282;2023-02-22T06:27:42;101280.53;;;10.25
26158;BMP280;67284;44.782;10.282;2023-02-22T06:32:34;101278.81;;;10.24
26158;BMP280;67284;44.782;10.282;2023-02-22T06:37:26;101282.25;;;10.26
26158;BMP280;67284;44.782;10.282;2023-02-22T06:42:18;101294.25;;;10.27
26158;BMP280;67284;44.782;10.282;2023-02-22T06:47:09;101296.81;;;10.27
26158;BMP280;67284;44.782;10.282;2023-02-22T06:52:06;101298.53;;;10.28
26158;BMP280;67284;44.782;10.282;2023-02-22T06:56:58;101306.25;;;10.28
26158;BMP280;67284;44.782;10.282;2023-02-22T07:01:50;101311.41;;;10.29
26158;BMP280;67284;44.782;10.282;2023-02-22T07:06:46;101318.28;;;10.29
26158;BMP280;67284;44.782;10.282;2023-02-22T07:11:39;101301.13;;;10.29
26158;BMP280;67284;44.782;10.282;2023-02-22T07:16:31;101313.13;;;10.29
26158;BMP280;67284;44.782;10.282;2023-02-22T07:21:24;101316.53;;;10.31
26158;BMP280;67284;44.782;10.282;2023-02-22T07:26:25;101309.69;;;10.30
26158;BMP280;67284;44.782;10.282;2023-02-22T07:31:17;101312.25;;;10.30
26158;BMP280;67284;44.782;10.282;2023-02-22T07:36:09;101313.13;;;10.29
26158;BMP280;67284;44.782;10.282;2023-02-22T07:41:01;101309.69;;;10.28
26158;BMP280;67284;44.782;10.282;2023-02-22T07:45:57;101300.28;;;10.29
26158;BMP280;67284;44.782;10.282;2023-02-22T07:50:49;101302.84;;;10.29
26158;BMP280;67284;44.782;10.282;2023-02-22T07:55:41;101292.56;;;10.29
26158;BMP280;67284;44.782;10.282;2023-02-22T08:00:38;101296.81;;;10.28
26158;BMP280;67284;44.782;10.282;2023-02-22T08:05:31;101301.13;;;10.29
26158;BMP280;67284;44.782;10.282;2023-02-22T08:10:25;101291.69;;;10.30
26158;BMP280;67284;44.782;10.282;2023-02-22T08:15:27;101296.81;;;10.30
26158;BMP280;67284;44.782;10.282;2023-02-22T08:20:20;101300.28;;;10.32
26158;BMP280;67284;44.782;10.282;2023-02-22T08:25:13;101296.84;;;10.33
26158;BMP280;67284;44.782;10.282;2023-02-22T08:30:07;101299.41;;;10.33
26158;BMP280;67284;44.782;10.282;2023-02-22T08:34:59;101296.84;;;10.34
26158;BMP280;67284;44.782;10.282;2023-02-22T08:39:52;101299.41;;;10.36
26158;BMP280;67284;44.782;10.282;2023-02-22T08:44:44;101292.56;;;10.35
26158;BMP280;67284;44.782;10.282;2023-02-22T08:49:36;101289.97;;;10.36
26158;BMP280;67284;44.782;10.282;2023-02-22T08:54:27;101290.81;;;10.37
26158;BMP280;67284;44.782;10.282;2023-02-22T08:59:19;101289.97;;;10.36
26158;BMP280;67284;44.782;10.282;2023-02-22T09:04:11;101291.69;;;10.37
26158;BMP280;67284;44.782;10.282;2023-02-22T09:09:03;101289.13;;;10.36
26158;BMP280;67284;44.782;10.282;2023-02-22T09:13:55;101291.69;;;10.37
26158;BMP280;67284;44.782;10.282;2023-02-22T09:18:47;101284.81;;;10.38
26158;BMP280;67284;44.782;10.282;2023-02-22T09:23:38;101289.13;;;10.38
26158;BMP280;67284;44.782;10.282;2023-02-22T09:28:32;101284.81;;;10.39
26158;BMP280;67284;44.782;10.282;2023-02-22T09:33:23;101283.13;;;10.39
26158;BMP280;67284;44.782;10.282;2023-02-22T09:38:19;101272.84;;;10.41
26158;BMP280;67284;44.782;10.282;2023-02-22T09:48:24;101278.81;;;10.41
26158;BMP280;67284;44.782;10.282;2023-02-22T10:03:33;101270.25;;;10.42
26158;BMP280;67284;44.782;10.282;2023-02-22T10:08:30;101254.81;;;10.45
26158;BMP280;67284;44.782;10.282;2023-02-22T10:33:46;101258.25;;;10.53
26158;BMP280;67284;44.782;10.282;2023-02-22T10:38:40;101253.94;;;10.60
26158;BMP280;67284;44.782;10.282;2023-02-22T10:43:39;101253.06;;;10.65
26158;BMP280;67284;44.782;10.282;2023-02-22T10:48:35;101252.22;;;10.69
26158;BMP280;67284;44.782;10.282;2023-02-22T10:53:29;101243.63;;;10.69
26158;BMP280;67284;44.782;10.282;2023-02-22T10:58:21;101245.34;;;10.65
26158;BMP280;67284;44.782;10.282;2023-02-22T11:03:20;101232.47;;;10.71
26158;BMP280;67284;44.782;10.282;2023-02-22T11:18:28;101219.59;;;10.73
26158;BMP280;67284;44.782;10.282;2023-02-22T11:23:21;101210.19;;;10.70
26158;BMP280;67284;44.782;10.282;2023-02-22T11:28:21;101201.59;;;10.65
26158;BMP280;67284;44.782;10.282;2023-02-22T11:33:23;101193.84;;;10.70
26158;BMP280;67284;44.782;10.282;2023-02-22T11:38:20;101192.16;;;10.67
26158;BMP280;67284;44.782;10.282;2023-02-22T11:43:17;101176.72;;;10.66
26158;BMP280;67284;44.782;10.282;2023-02-22T11:48:18;101168.13;;;10.65
26158;BMP280;67284;44.782;10.282;2023-02-22T11:58:17;101155.25;;;10.68
26158;BMP280;67284;44.782;10.282;2023-02-22T12:03:52;101144.94;;;10.76
26158;BMP280;67284;44.782;10.282;2023-02-22T12:14:23;101144.03;;;10.84
26158;BMP280;67284;44.782;10.282;2023-02-22T12:24:36;101149.22;;;10.80
26158;BMP280;67284;44.782;10.282;2023-02-22T12:29:40;101143.22;;;10.76
26158;BMP280;67284;44.782;10.282;2023-02-22T12:34:51;101138.06;;;10.82
26158;BMP280;67284;44.782;10.282;2023-02-22T12:40:09;101130.31;;;10.85
26158;BMP280;67284;44.782;10.282;2023-02-22T12:45:10;101132.88;;;10.88
26158;BMP280;67284;44.782;10.282;2023-02-22T12:50:27;101131.16;;;10.84
26158;BMP280;67284;44.782;10.282;2023-02-22T12:55:24;101112.28;;;10.85
26158;BMP280;67284;44.782;10.282;2023-02-22T13:00:33;101111.38;;;10.93
26158;BMP280;67284;44.782;10.282;2023-02-22T13:05:31;101105.34;;;11.00
26158;BMP280;67284;44.782;10.282;2023-02-22T13:25:45;101087.19;;;11.21
26158;BMP280;67284;44.782;10.282;2023-02-22T13:30:41;101091.53;;;11.12
26158;BMP280;67284;44.782;10.282;2023-02-22T13:56:27;101079.63;;;10.96
26158;BMP280;67284;44.782;10.282;2023-02-22T14:01:40;101082.19;;;10.96
26158;BMP280;67284;44.782;10.282;2023-02-22T14:06:37;101072.75;;;10.96
26158;BMP280;67284;44.782;10.282;2023-02-22T14:16:29;101063.19;;;11.18
26158;BMP280;67284;44.782;10.282;2023-02-22T14:21:21;101054.59;;;11.17
26158;BMP280;67284;44.782;10.282;2023-02-22T14:36:13;101055.41;;;11.27
26158;BMP280;67284;44.782;10.282;2023-02-22T14:41:05;101051.91;;;11.34
26158;BMP280;67284;44.782;10.282;2023-02-22T14:45:59;101059.66;;;11.31
26158;BMP280;67284;44.782;10.282;2023-02-22T14:50:58;101051.81;;;11.42
26158;BMP280;67284;44.782;10.282;2023-02-22T14:56:20;101051.78;;;11.45
26158;BMP280;67284;44.782;10.282;2023-02-22T15:01:33;101056.94;;;11.45
26158;BMP280;67284;44.782;10.282;2023-02-22T15:06:46;101049.25;;;11.47
26158;BMP280;67284;44.782;10.282;2023-02-22T15:11:39;101050.97;;;11.48
26158;BMP280;67284;44.782;10.282;2023-02-22T15:16:32;101050.94;;;11.51
26158;BMP280;67284;44.782;10.282;2023-02-22T15:21:26;101047.50;;;11.52
26158;BMP280;67284;44.782;10.282;2023-02-22T15:31:15;101050.16;;;11.40
26158;BMP280;67284;44.782;10.282;2023-02-22T15:36:14;101037.25;;;11.37
26158;BMP280;67284;44.782;10.282;2023-02-22T15:41:06;101038.13;;;11.38
26158;BMP280;67284;44.782;10.282;2023-02-22T15:46:04;101036.38;;;11.41
26158;BMP280;67284;44.782;10.282;2023-02-22T15:51:07;101032.94;;;11.43
26158;BMP280;67284;44.782;10.282;2023-02-22T15:56:01;101031.19;;;11.44
26158;BMP280;67284;44.782;10.282;2023-02-22T16:01:10;101030.38;;;11.41
26158;BMP280;67284;44.782;10.282;2023-02-22T16:06:09;101031.28;;;11.35
26158;BMP280;67284;44.782;10.282;2023-02-22T16:11:05;101029.56;;;11.36
26158;BMP280;67284;44.782;10.282;2023-02-22T16:16:21;101033.94;;;11.26
26158;BMP280;67284;44.782;10.282;2023-02-22T16:21:16;101036.50;;;11.23
26158;BMP280;67284;44.782;10.282;2023-02-22T16:26:23;101032.16;;;11.31
26158;BMP280;67284;44.782;10.282;2023-02-22T16:31:20;101024.44;;;11.33
26158;BMP280;67284;44.782;10.282;2023-02-22T16:36:13;101022.72;;;11.33
26158;BMP280;67284;44.782;10.282;2023-02-22T16:41:05;101028.75;;;11.31
26158;BMP280;67284;44.782;10.282;2023-02-22T16:45:59;101033.03;;;11.32
26158;BMP280;67284;44.782;10.282;2023-02-22T16:50:56;101030.44;;;11.30
26158;BMP280;67284;44.782;10.282;2023-02-22T16:55:51;101031.31;;;11.31
26158;BMP280;67284;44.782;10.282;2023-02-22T17:00:48;101032.22;;;11.27
26158;BMP280;67284;44.782;10.282;2023-02-22T17:05:40;101040.78;;;11.27
26158;BMP280;67284;44.782;10.282;2023-02-22T17:10:33;101040.78;;;11.27
26158;BMP280;67284;44.782;10.282;2023-02-22T17:15:27;101052.84;;;11.22
26158;BMP280;67284;44.782;10.282;2023-02-22T17:20:20;101051.16;;;11.20
26158;BMP280;67284;44.782;10.282;2023-02-22T17:25:22;101053.69;;;11.23
26158;BMP280;67284;44.782;10.282;2023-02-22T17:30:16;101059.72;;;11.25
26158;BMP280;67284;44.782;10.282;2023-02-22T17:35:16;101051.09;;;11.24
26158;BMP280;67284;44.782;10.282;2023-02-22T17:40:08;101055.41;;;11.25
26158;BMP280;67284;44.782;10.282;2023-02-22T17:45:00;101059.69;;;11.23
26158;BMP280;67284;44.782;10.282;2023-02-22T17:49:52;101058.84;;;11.23
26158;BMP280;67284;44.782;10.282;2023-02-22T17:54:44;101064.00;;;11.23
26158;BMP280;67284;44.782;10.282;2023-02-22T17:59:35;101064.84;;;11.22
26158;BMP280;67284;44.782;10.282;2023-02-22T18:04:32;101064.00;;;11.21
26158;BMP280;67284;44.782;10.282;2023-02-22T18:09:25;101064.03;;;11.20
26158;BMP280;67284;44.782;10.282;2023-02-22T18:14:17;101058.88;;;11.20
26158;BMP280;67284;44.782;10.282;2023-02-22T18:19:09;101057.16;;;11.19
26158;BMP280;67284;44.782;10.282;2023-02-22T18:24:01;101054.59;;;11.17
26158;BMP280;67284;44.782;10.282;2023-02-22T18:28:53;101046.88;;;11.16
26158;BMP280;67284;44.782;10.282;2023-02-22T18:33:47;101052.03;;;11.16
26158;BMP280;67284;44.782;10.282;2023-02-22T18:38:41;101054.63;;;11.14
26158;BMP280;67284;44.782;10.282;2023-02-22T18:43:33;101047.75;;;11.13
26158;BMP280;67284;44.782;10.282;2023-02-22T18:48:26;101041.72;;;11.14
26158;BMP280;67284;44.782;10.282;2023-02-22T18:53:17;101043.47;;;11.14
26158;BMP280;67284;44.782;10.282;2023-02-22T18:58:09;101040.03;;;11.13
26158;BMP280;67284;44.782;10.282;2023-02-22T19:03:01;101038.31;;;11.14
26158;BMP280;67284;44.782;10.282;2023-02-22T19:07:53;101037.44;;;11.12
26158;BMP280;67284;44.782;10.282;2023-02-22T19:12:45;101039.19;;;11.11
26158;BMP280;67284;44.782;10.282;2023-02-22T19:17:36;101029.72;;;11.12
26158;BMP280;67284;44.782;10.282;2023-02-22T19:22:32;101040.06;;;11.09
26158;BMP280;67284;44.782;10.282;2023-02-22T19:27:26;101038.34;;;11.08
26158;BMP280;67284;44.782;10.282;2023-02-22T19:32:21;101034.06;;;11.08
26158;BMP280;67284;44.782;10.282;2023-02-22T19:37:13;101043.47;;;11.08
26158;BMP280;67284;44.782;10.282;2023-02-22T19:42:05;101040.09;;;11.04
26158;BMP280;67284;44.782;10.282;2023-02-22T19:47:00;101040.97;;;11.02
26158;BMP280;67284;44.782;10.282;2023-02-22T19:51:51;101041.81;;;11.04
26158;BMP280;67284;44.782;10.282;2023-02-22T19:56:44;101040.97;;;11.02
26158;BMP280;67284;44.782;10.282;2023-02-22T20:01:36;101041.84;;;11.01
26158;BMP280;67284;44.782;10.282;2023-02-22T20:06:31;101043.53;;;11.02
26158;BMP280;67284;44.782;10.282;2023-02-22T20:11:26;101041.84;;;11.01
26158;BMP280;67284;44.782;10.282;2023-02-22T20:16:18;101040.13;;;11.00
26158;BMP280;67284;44.782;10.282;2023-02-22T20:21:18;101047.84;;;11.00
26158;BMP280;67284;44.782;10.282;2023-02-22T20:26:16;101033.22;;;11.02
26158;BMP280;67284;44.782;10.282;2023-02-22T20:31:10;101038.38;;;11.02
26158;BMP280;67284;44.782;10.282;2023-02-22T20:36:04;101040.13;;;11.01
26158;BMP280;67284;44.782;10.282;2023-02-22T20:40:56;101045.28;;;11.00
26158;BMP280;67284;44.782;10.282;2023-02-22T20:45:48;101047.00;;;11.01
26158;BMP280;67284;44.782;10.282;2023-02-22T20:50:40;101036.69;;;11.01
26158;BMP280;67284;44.782;10.282;2023-02-22T20:55:31;101053.00;;;11.01
26158;BMP280;67284;44.782;10.282;2023-02-22T21:00:23;101041.84;;;11.02
26158;BMP280;67284;44.782;10.282;2023-02-22T21:05:15;101037.53;;;11.01
26158;BMP280;67284;44.782;10.282;2023-02-22T21:10:07;101039.28;;;11.01
26158;BMP280;67284;44.782;10.282;2023-02-22T21:14:59;101039.28;;;11.01
26158;BMP280;67284;44.782;10.282;2023-02-22T21:19:51;101035.81;;;11.00
26158;BMP280;67284;44.782;10.282;2023-02-22T21:24:43;101034.13;;;11.01
26158;BMP280;67284;44.782;10.282;2023-02-22T21:29:34;101032.41;;;11.00
26158;BMP280;67284;44.782;10.282;2023-02-22T21:34:26;101035.81;;;11.00
26158;BMP280;67284;44.782;10.282;2023-02-22T21:39:18;101029.81;;;11.00
26158;BMP280;67284;44.782;10.282;2023-02-22T21:44:11;101034.97;;;11.01
26158;BMP280;67284;44.782;10.282;2023-02-22T21:49:03;101027.25;;;11.01
26158;BMP280;67284;44.782;10.282;2023-02-22T21:53:57;101024.69;;;11.00
26158;BMP280;67284;44.782;10.282;2023-02-22T21:59:01;101020.38;;;11.00
26158;BMP280;67284;44.782;10.282;2023-02-22T22:03:55;101021.25;;;11.01
26158;BMP280;67284;44.782;10.282;2023-02-22T22:08:47;101009.25;;;10.98
26158;BMP280;67284;44.782;10.282;2023-02-22T22:13:40;101016.13;;;10.95
26158;BMP280;67284;44.782;10.282;2023-02-22T22:18:34;101004.97;;;10.93
26158;BMP280;67284;44.782;10.282;2023-02-22T22:23:26;101010.97;;;10.92
26158;BMP280;67284;44.782;10.282;2023-02-22T22:28:18;101009.25;;;10.91
26158;BMP280;67284;44.782;10.282;2023-02-22T22:33:10;101007.56;;;10.90
26158;BMP280;67284;44.782;10.282;2023-02-22T22:38:02;101006.69;;;10.89
26158;BMP280;67284;44.782;10.282;2023-02-22T22:42:54;101006.72;;;10.88
26158;BMP280;67284;44.782;10.282;2023-02-22T22:47:45;101010.19;;;10.87
26158;BMP280;67284;44.782;10.282;2023-02-22T22:52:37;101005.88;;;10.86
26158;BMP280;67284;44.782;10.282;2023-02-22T22:57:29;101000.72;;;10.86
26158;BMP280;67284;44.782;10.282;2023-02-22T23:02:21;100994.72;;;10.84
26158;BMP280;67284;44.782;10.282;2023-02-22T23:07:13;101002.44;;;10.84
26158;BMP280;67284;44.782;10.282;2023-02-22T23:12:05;100996.44;;;10.84
26158;BMP280;67284;44.782;10.282;2023-02-22T23:17:07;100993.03;;;10.83
26158;BMP280;67284;44.782;10.282;2023-02-22T23:22:05;100989.56;;;10.84
26158;BMP280;67284;44.782;10.282;2023-02-22T23:26:57;100993.88;;;10.85
26158;BMP280;67284;44.782;10.282;2023-02-22T23:31:52;100991.28;;;10.85
26158;BMP280;67284;44.782;10.282;2023-02-22T23:36:45;100994.75;;;10.86
26158;BMP280;67284;44.782;10.282;2023-02-22T23:41:37;100991.28;;;10.85
26158;BMP280;67284;44.782;10.282;2023-02-22T23:46:29;100990.47;;;10.83
26158;BMP280;67284;44.782;10.282;2023-02-22T23:51:23;100988.75;;;10.79
26158;BMP280;67284;44.782;10.282;2023-02-22T23:56:18;100986.19;;;10.79
